Time;durP1;ratioP1;P1;durP2;ratioP2;P2;SDS_P1;SDS_P2;PMS_P1;PMS_P2;Temp;Humidity;BMP_temperature;BMP_pressure;BME280_temperature;BME280_humidity;BME280_pressure;Samples;Min_cycle;Max_cycle;Signal;HPM_P1;HPM_P2
2023/02/11 00:02:05;;;;;;;69.50;36.20;;;;;;;0.67;68.44;101881.67;126851;1294;115010;-62
2023/02/11 00:05:59;;;;;;;;;;;;;;;;;;;;;
2023/02/11 00:13:52;;;;;;;66.00;34.90;;;;;;;0.94;68.05;101862.21;125460;1305;115164;-64
2023/02/11 00:17:54;;;;;;;64.90;32.70;;;;;;;1.01;68.08;101858.29;125182;1315;115032;-63
2023/02/11 00:26:04;;;;;;;61.90;32.80;;;;;;;1.13;68.01;101849.67;125746;1300;635599;-63
2023/02/11 00:30:05;;;;;;;;;;;;;;;;;;;;;
2023/02/11 00:34:09;;;;;;;64.90;33.20;;;;;;;1.21;67.90;101844.15;126965;1289;115283;-63
2023/02/11 00:38:11;;;;;;;59.90;32.60;;;;;;;1.29;67.67;101841.98;121487;1302;5431904;-64
2023/02/11 00:42:02;;;;;;;61.30;33.50;;;;;;;1.36;67.67;101840.66;124811;1318;114981;-65
2023/02/11 00:46:04;;;;;;;68.20;36.40;;;;;;;1.44;67.52;101838.11;124282;1326;115115;-64
2023/02/11 00:50:03;;;;;;;;;;;;;;;;;;;;;
2023/02/11 00:54:24;;;;;;;62.60;35.80;;;;;;;1.59;67.34;101828.09;126315;1292;636076;-63
2023/02/11 00:58:26;;;;;;;65.40;37.20;;;;;;;1.62;67.48;101819.16;127791;1283;130001;-64
2023/02/11 01:02:27;;;;;;;;;;;;;;;;;;;;;
2023/02/11 01:06:21;;;;;;;;;;;;;;;;;;;;;
2023/02/11 01:10:24;;;;;;;71.60;36.40;;;;;;;1.65;67.28;101798.23;124603;1310;116464;-64
2023/02/11 01:22:58;;;;;;;66.60;34.40;;;;;;;1.48;67.00;101779.90;126905;1298;127951;-65
2023/02/11 01:30:54;;;;;;;79.00;39.70;;;;;;;1.31;66.87;101764.57;121530;1316;5402955;-63
2023/02/11 01:34:55;;;;;;;76.90;38.60;;;;;;;1.25;67.18;101762.54;124995;1324;114916;-63
2023/02/11 01:43:05;;;;;;;71.00;37.80;;;;;;;1.16;67.24;101750.98;125903;1297;635919;-64
2023/02/11 01:47:05;;;;;;;48.30;27.00;;;;;;;1.11;67.37;101739.48;127649;1278;128830;-63
2023/02/11 01:51:08;;;;;;;70.20;36.20;;;;;;;1.08;67.38;101726.44;128301;1280;114947;-64
2023/02/11 01:58:51;;;;;;;;;;;;;;;;;;;;;
2023/02/11 02:02:37;;;;;;;74.20;38.80;;;;;;;1.10;67.59;101713.42;125286;1315;115003;-63
2023/02/11 02:06:51;;;;;;;71.40;37.70;;;;;;;1.10;67.74;101717.13;124615;1314;115021;-64
2023/02/11 02:10:36;;;;;;;73.80;39.00;;;;;;;1.08;67.76;101694.40;124670;1312;129773;-64
2023/02/11 02:14:30;;;;;;;70.20;37.00;;;;;;;1.08;67.93;101695.46;124103;1329;115419;-63
2023/02/11 02:18:16;;;;;;;73.90;39.30;;;;;;;1.09;67.79;101692.66;123824;1316;114994;-63
2023/02/11 02:22:48;;;;;;;64.30;34.60;;;;;;;1.11;67.90;101682.84;124009;1316;114988;-64
2023/02/11 02:26:48;;;;;;;70.40;36.20;;;;;;;1.13;67.84;101671.77;124456;1313;114958;-64
2023/02/11 02:35:17;;;;;;;;;;;;;;;;;;;;;
2023/02/11 02:39:25;;;;;;;69.70;37.00;;;;;;;1.19;68.00;101659.17;125142;1318;115066;-64
2023/02/11 02:43:15;;;;;;;65.80;35.90;;;;;;;1.22;68.01;101649.35;125825;1293;114883;-65
2023/02/11 02:47:17;;;;;;;65.80;37.00;;;;;;;1.25;67.94;101641.11;125605;1318;114869;-64
2023/02/11 02:51:10;;;;;;;;;;;;;;;;;;;;;
2023/02/11 02:55:13;;;;;;;62.90;33.40;;;;;;;1.35;68.06;101628.20;124568;1325;115472;-63
2023/02/11 02:59:22;;;;;;;59.20;31.80;;;;;;;1.39;67.93;101616.95;124965;1325;114873;-64
2023/02/11 03:03:30;;;;;;;60.20;32.20;;;;;;;1.42;67.67;101616.30;124907;1307;114845;-64
2023/02/11 03:07:37;;;;;;;56.80;31.60;;;;;;;1.46;67.63;101605.41;124952;1325;114801;-63
2023/02/11 03:11:39;;;;;;;61.10;32.50;;;;;;;1.48;67.43;101600.50;124408;1313;129927;-63
2023/02/11 03:15:22;;;;;;;64.20;33.80;;;;;;;1.51;67.48;101596.83;124256;1326;115467;-64
2023/02/11 03:19:23;;;;;;;55.30;30.90;;;;;;;1.54;67.33;101604.41;125048;1307;115149;-63
2023/02/11 03:23:46;;;;;;;60.50;34.00;;;;;;;1.56;67.32;101602.69;123996;1316;115135;-64
2023/02/11 03:27:36;;;;;;;57.20;31.80;;;;;;;1.59;67.31;101613.97;124560;1313;114859;-64
2023/02/11 03:31:35;;;;;;;;;;;;;;;;;;;;;
2023/02/11 03:35:52;;;;;;;54.30;31.00;;;;;;;1.66;67.10;101602.77;125422;1304;115269;-64
2023/02/11 03:39:56;;;;;;;58.70;32.00;;;;;;;1.73;67.01;101606.87;125322;1305;115439;-63
2023/02/11 03:43:58;;;;;;;60.10;33.00;;;;;;;1.78;66.97;101610.61;124673;1311;114949;-65
2023/02/11 03:47:59;;;;;;;65.40;34.40;;;;;;;1.84;67.11;101618.05;124751;1326;114942;-63
2023/02/11 03:52:01;;;;;;;66.30;35.20;;;;;;;1.90;67.09;101608.59;124549;1310;129849;-63
2023/02/11 03:56:02;;;;;;;57.00;32.30;;;;;;;1.95;66.89;101597.53;124692;1310;115296;-64
2023/02/11 04:00:04;;;;;;;58.00;31.90;;;;;;;2.00;66.97;101594.04;124345;1313;114809;-63
2023/02/11 04:04:05;;;;;;;54.40;31.60;;;;;;;2.03;66.76;101584.38;124136;1323;114914;-63
2023/02/11 04:12:27;;;;;;;59.00;33.80;;;;;;;2.12;66.58;101571.02;126389;1305;636920;-64
2023/02/11 04:16:28;;;;;;;;;;;;;;;;;;;;;
2023/02/11 04:20:31;;;;;;;56.80;31.70;;;;;;;2.15;66.40;101556.06;128036;1276;115436;-64
2023/02/11 04:24:35;;;;;;;60.60;33.10;;;;;;;2.16;66.50;101541.97;122716;1293;5426391;-64
2023/02/11 04:28:33;;;;;;;;;;;;;;;;;;;;;
2023/02/11 04:32:29;;;;;;;;;;;;;;;;;;;;;
2023/02/11 04:37:02;;;;;;;;;;;;;;;;;;;;;
2023/02/11 04:40:49;;;;;;;56.20;32.40;;;;;;;2.19;66.43;101518.71;126589;1301;127918;-64
2023/02/11 04:44:53;;;;;;;58.90;33.30;;;;;;;2.21;66.45;101521.91;125993;1314;116029;-64
2023/02/11 04:48:43;;;;;;;;;;;;;;;;;;;;;
2023/02/11 04:56:57;;;;;;;;;;;;;;;;;;;;;
2023/02/11 05:01:00;;;;;;;;;;;;;;;;;;;;;
2023/02/11 05:05:04;;;;;;;55.80;31.10;;;;;;;2.26;66.08;101513.80;126834;1289;115419;-64
2023/02/11 05:09:05;;;;;;;52.80;29.80;;;;;;;2.27;66.07;101502.54;121554;1304;5508648;-64
2023/02/11 05:17:27;;;;;;;63.00;30.80;;;;;;;2.32;65.86;101482.64;126245;1305;635333;-64
2023/02/11 05:21:31;;;;;;;55.70;29.70;;;;;;;2.30;65.57;101475.23;128688;1273;128983;-64
2023/02/11 05:25:33;;;;;;;55.50;31.30;;;;;;;2.29;65.59;101471.88;127413;1294;115481;-63
2023/02/11 05:37:39;;;;;;;55.70;31.60;;;;;;;2.32;65.54;101466.96;125800;1309;114977;-64
2023/02/11 05:46:14;;;;;;;56.80;31.80;;;;;;;2.41;65.49;101470.34;125527;1311;640856;-65
2023/02/11 05:50:07;;;;;;;53.40;31.60;;;;;;;2.42;65.47;101473.50;127375;1284;128715;-63
2023/02/11 05:54:10;;;;;;;59.40;33.40;;;;;;;2.44;65.24;101469.45;127194;1303;115230;-62
2023/02/11 05:58:13;;;;;;;81.00;42.30;;;;;;;2.47;65.21;101465.06;122495;1290;5387038;-62
2023/02/11 06:02:06;;;;;;;;;;;;;;;;;;;;;
2023/02/11 06:06:09;;;;;;;81.60;43.30;;;;;;;2.49;65.21;101469.46;124080;1332;114962;-63
2023/02/11 06:22:17;;;;;;;;;;;;;;;;;;;;;
2023/02/11 06:30:27;;;;;;;54.60;31.10;;;;;;;2.65;65.30;101462.64;125180;1306;5433795;-64
2023/02/11 06:34:29;;;;;;;54.60;31.00;;;;;;;2.73;65.12;101454.88;125900;1303;114951;-62
2023/02/11 06:38:30;;;;;;;57.70;32.90;;;;;;;2.81;65.33;101449.60;125415;1320;115054;-62
2023/02/11 06:42:32;;;;;;;52.80;31.60;;;;;;;2.85;65.22;101451.38;124720;1327;128582;-62
2023/02/11 06:55:10;;;;;;;58.40;31.20;;;;;;;2.99;65.19;101445.55;127891;1292;128768;-62
2023/02/11 06:59:13;;;;;;;53.80;30.70;;;;;;;3.04;65.11;101450.33;126274;1296;115381;-62
2023/02/11 07:03:15;;;;;;;54.90;31.00;;;;;;;3.09;65.24;101456.14;121809;1299;5488785;-62
2023/02/11 07:07:22;;;;;;;57.70;32.50;;;;;;;3.10;65.08;101448.91;124104;1326;114950;-62
2023/02/11 07:11:15;;;;;;;;;;;;;;;;;;;;;
2023/02/11 07:15:50;;;;;;;54.50;31.50;;;;;;;3.21;65.22;101426.31;125453;1306;642884;-63
2023/02/11 07:19:54;;;;;;;58.30;32.10;;;;;;;3.24;65.18;101410.23;127724;1284;130791;-63
2023/02/11 07:28:00;;;;;;;54.90;32.80;;;;;;;3.32;65.19;101431.05;122724;1290;5504214;-63
2023/02/11 07:32:11;;;;;;;60.00;32.70;;;;;;;3.36;65.17;101433.36;125772;1318;114863;-62
2023/02/11 07:36:13;;;;;;;58.60;30.70;;;;;;;3.43;65.23;101420.63;125578;1318;114935;-62
2023/02/11 07:40:12;;;;;;;;;;;;;;;;;;;;;
2023/02/11 07:48:48;;;;;;;53.40;32.40;;;;;;;3.70;65.34;101423.40;125790;1300;638556;-63
2023/02/11 07:52:51;;;;;;;52.80;32.30;;;;;;;3.78;65.30;101419.65;128622;1272;128307;-62
2023/02/11 07:56:54;;;;;;;51.20;31.60;;;;;;;3.85;65.28;101420.52;127940;1276;115242;-63
2023/02/11 08:00:58;;;;;;;57.70;32.80;;;;;;;3.90;65.28;101418.36;123640;1282;5518348;-62
2023/02/11 08:05:00;;;;;;;54.40;31.70;;;;;;;3.97;65.44;101427.71;127205;1308;115426;-62
2023/02/11 08:13:41;;;;;;;54.80;32.70;;;;;;;4.12;65.48;101425.35;125429;1302;639298;-62
2023/02/11 08:17:28;;;;;;;59.10;32.80;;;;;;;4.17;65.57;101429.04;127865;1283;127928;-63
2023/02/11 08:25:35;;;;;;;56.70;31.50;;;;;;;4.32;65.96;101418.88;121913;1298;5450219;-62
2023/02/11 08:29:36;;;;;;;52.70;30.40;;;;;;;4.35;66.15;101425.41;124191;1332;114894;-63
2023/02/11 08:33:39;;;;;;;54.90;31.20;;;;;;;4.40;66.44;101435.27;123914;1332;115092;-62
2023/02/11 08:42:12;;;;;;;53.40;29.80;;;;;;;4.53;67.03;101419.64;125652;1309;638723;-63
2023/02/11 08:46:15;;;;;;;53.50;29.00;;;;;;;4.58;67.77;101413.06;128166;1279;128334;-63
2023/02/11 08:50:17;;;;;;;45.20;27.50;;;;;;;4.69;67.86;101404.49;126882;1297;115313;-63
2023/02/11 08:54:22;;;;;;;49.90;30.40;;;;;;;4.81;68.30;101401.40;122869;1292;5447103;-63
2023/02/11 09:02:59;;;;;;;48.10;29.90;;;;;;;5.02;68.87;101401.04;125394;1305;638034;-62
2023/02/11 09:07:03;;;;;;;53.00;29.10;;;;;;;5.10;68.88;101396.73;128182;1296;127691;-62
2023/02/11 09:11:04;;;;;;;50.20;30.80;;;;;;;5.20;68.96;101380.34;127747;1292;114908;-62
2023/02/11 09:15:07;;;;;;;53.00;30.70;;;;;;;5.30;69.14;101378.45;123354;1297;5455822;-62
2023/02/11 09:18:58;;;;;;;49.70;30.00;;;;;;;5.47;69.04;101368.36;125624;1302;114964;-62
2023/02/11 09:23:00;;;;;;;47.20;30.40;;;;;;;5.64;68.94;101366.21;125283;1324;114934;-62
2023/02/11 09:32:11;;;;;;;50.00;31.80;;;;;;;5.90;68.82;101356.33;125542;1312;638753;-63
2023/02/11 09:35:50;;;;;;;52.00;30.10;;;;;;;5.98;68.88;101344.35;127166;1303;128828;-63
2023/02/11 09:48:51;;;;;;;47.90;28.80;;;;;;;6.19;68.60;101335.95;127839;1283;128800;-62
2023/02/11 09:53:04;;;;;;;49.10;28.60;;;;;;;6.24;68.74;101336.20;127577;1283;115269;-63
2023/02/11 10:01:20;;;;;;;;;;;;;;;;;;;;;
2023/02/11 10:05:42;;;;;;;43.60;27.40;;;;;;;6.40;68.45;101346.42;126725;1308;114924;-61
2023/02/11 10:09:49;;;;;;;44.40;28.40;;;;;;;6.40;68.54;101343.95;126887;1290;114845;-63
2023/02/11 10:18:15;;;;;;;;;;;;;;;;;;;;;
2023/02/11 10:22:34;;;;;;;40.00;24.80;;;;;;;6.38;68.72;101320.02;126970;1294;115034;-63
2023/02/11 10:26:38;;;;;;;42.20;24.10;;;;;;;6.40;68.75;101305.63;128014;1283;114951;-62
2023/02/11 10:30:47;;;;;;;42.00;25.60;;;;;;;6.46;69.01;101282.27;127675;1286;114916;-61
2023/02/11 10:34:54;;;;;;;42.90;29.40;;;;;;;6.59;69.05;101298.56;127880;1284;128854;-63
2023/02/11 10:47:05;;;;;;;37.40;24.60;;;;;;;6.92;68.75;101291.79;126241;1292;114942;-64
2023/02/11 10:51:25;;;;;;;37.80;25.10;;;;;;;6.99;68.60;101290.93;125463;1320;114925;-63
2023/02/11 10:55:25;;;;;;;;;;;;;;;;;;;;;
2023/02/11 10:59:39;;;;;;;43.50;27.80;;;;;;;7.07;68.66;101285.11;125177;1307;115394;-63
2023/02/11 11:03:40;;;;;;;41.80;28.00;;;;;;;7.08;68.46;101290.23;125159;1316;114933;-63
2023/02/11 11:07:51;;;;;;;42.10;26.10;;;;;;;7.03;68.38;101288.55;125064;1320;114805;-63
2023/02/11 11:12:04;;;;;;;38.70;25.90;;;;;;;6.98;68.40;101293.45;125046;1317;114887;-64
2023/02/11 11:16:01;;;;;;;;;;;;;;;;;;;;;
2023/02/11 11:20:09;;;;;;;44.70;29.40;;;;;;;6.94;68.65;101290.33;124977;1310;115304;-64
2023/02/11 11:32:32;;;;;;;59.60;35.50;;;;;;;7.02;68.89;101284.13;125561;1311;114932;-63
2023/02/11 11:36:34;;;;;;;54.00;30.10;;;;;;;7.11;68.96;101279.33;124644;1327;130150;-64
2023/02/11 11:40:39;;;;;;;46.80;28.70;;;;;;;7.23;68.94;101274.49;124157;1313;115603;-62
2023/02/11 11:44:42;;;;;;;53.50;31.30;;;;;;;7.38;68.91;101267.97;124069;1330;114889;-63
2023/02/11 11:49:00;;;;;;;50.20;30.30;;;;;;;7.48;68.70;101274.70;124214;1311;115695;-62
2023/02/11 11:53:05;;;;;;;50.80;30.90;;;;;;;7.51;68.45;101287.27;124276;1324;115002;-65
2023/02/11 11:57:00;;;;;;;47.60;27.60;;;;;;;7.49;68.35;101272.73;124634;1304;129768;-61
2023/02/11 12:05:07;;;;;;;47.70;27.30;;;;;;;7.44;68.47;101273.00;125000;1315;114897;-62
2023/02/11 12:13:28;;;;;;;50.70;30.50;;;;;;;7.47;68.41;101248.05;126393;1303;115943;-61
2023/02/11 12:17:49;;;;;;;50.30;28.40;;;;;;;7.51;68.65;101244.44;126683;1283;127589;-61
2023/02/11 12:22:13;;;;;;;45.10;27.40;;;;;;;7.49;68.39;101236.64;127226;1283;115427;-61
2023/02/11 12:26:26;;;;;;;52.80;31.10;;;;;;;7.49;68.45;101230.96;126445;1290;115008;-63
2023/02/11 12:39:51;;;;;;;49.80;26.40;;;;;;;7.59;68.11;101220.42;128328;1286;128994;-63
2023/02/11 12:43:54;;;;;;;45.60;26.60;;;;;;;7.54;67.91;101207.02;128331;1274;115454;-66
2023/02/11 12:47:57;;;;;;;44.50;26.10;;;;;;;7.45;68.03;101198.86;124451;1278;5444983;-63
2023/02/11 12:52:14;;;;;;;42.00;25.00;;;;;;;7.39;68.15;101204.34;128041;1278;114939;-62
2023/02/11 12:56:17;;;;;;;45.10;26.50;;;;;;;7.33;68.18;101212.11;127888;1297;114965;-60
2023/02/11 13:04:20;;;;;;;47.80;26.20;;;;;;;7.26;68.40;101217.05;127738;1289;115323;-62
2023/02/11 13:08:26;;;;;;;38.20;24.80;;;;;;;7.24;68.51;101219.04;127775;1301;114859;-62
2023/02/11 13:16:28;;;;;;;;;;;;;;;;;;;;;
2023/02/11 13:20:57;;;;;;;44.50;26.80;;;;;;;7.19;68.35;101217.02;128414;1271;128837;-64
2023/02/11 13:24:35;;;;;;;45.90;28.70;;;;;;;7.17;68.55;101220.61;128286;1278;115000;-63
2023/02/11 13:28:46;;;;;;;45.00;27.40;;;;;;;7.15;68.59;101218.34;128564;1274;114871;-65
2023/02/11 13:32:55;;;;;;;42.50;26.50;;;;;;;7.10;68.64;101217.38;128463;1289;114910;-64
2023/02/11 13:41:04;;;;;;;42.60;25.70;;;;;;;7.09;68.66;101202.47;128269;1278;128748;-62
2023/02/11 13:45:11;;;;;;;40.80;26.40;;;;;;;7.07;68.65;101203.58;127970;1273;115338;-62
2023/02/11 13:49:17;;;;;;;;;;;;;;;;;;;;;
2023/02/11 13:53:16;;;;;;;41.30;25.50;;;;;;;7.03;68.63;101209.88;127553;1295;114986;-62
2023/02/11 13:57:50;;;;;;;42.40;25.70;;;;;;;7.03;68.89;101208.81;127155;1301;114923;-63
2023/02/11 14:10:10;;;;;;;36.20;24.50;;;;;;;6.94;69.02;101202.77;127301;1298;115049;-62
2023/02/11 14:14:21;;;;;;;;;;;;;;;;;;;;;
2023/02/11 14:18:28;;;;;;;41.60;25.40;;;;;;;6.85;69.20;101223.02;128380;1281;114918;-64
2023/02/11 14:22:30;;;;;;;;;;;;;;;;;;;;;
2023/02/11 14:26:56;;;;;;;42.30;24.50;;;;;;;6.79;69.54;101251.02;127123;1300;115203;-63
2023/02/11 14:30:52;;;;;;;44.90;26.10;;;;;;;6.76;69.70;101249.98;127165;1297;114944;-64
2023/02/11 14:35:13;;;;;;;48.50;27.50;;;;;;;6.71;69.76;101250.61;126516;1304;114797;-62
2023/02/11 14:39:19;;;;;;;42.10;26.20;;;;;;;6.69;69.91;101259.35;126615;1308;114958;-64
2023/02/11 14:43:19;;;;;;;42.80;25.60;;;;;;;6.64;70.08;101263.70;126419;1292;128438;-63
2023/02/11 14:47:14;;;;;;;43.00;25.10;;;;;;;6.65;70.45;101275.22;125679;1302;115506;-64
2023/02/11 14:51:31;;;;;;;43.70;26.30;;;;;;;6.64;70.38;101281.79;124955;1323;114913;-63
2023/02/11 14:59:57;;;;;;;40.70;26.20;;;;;;;6.61;70.97;101278.31;126223;1295;635974;-62
2023/02/11 15:04:39;;;;;;;36.90;25.10;;;;;;;6.55;71.30;101280.17;127784;1284;128721;-61
2023/02/11 15:08:28;;;;;;;41.60;26.40;;;;;;;6.50;71.60;101285.77;127711;1301;114945;-62
2023/02/11 15:12:24;;;;;;;42.40;25.60;;;;;;;6.46;71.90;101277.69;123835;1293;5424399;-63
2023/02/11 15:16:20;;;;;;;;;;;;;;;;;;;;;
2023/02/11 15:20:19;;;;;;;43.70;26.00;;;;;;;6.33;72.52;101274.16;126091;1293;115070;-62
2023/02/11 15:24:12;;;;;;;;;;;;;;;;;;;;;
2023/02/11 15:28:15;;;;;;;;;;;;;;;;;;;;;
2023/02/11 15:32:26;;;;;;;39.90;25.60;;;;;;;6.22;73.36;101288.88;126330;1303;636111;-64
2023/02/11 15:36:35;;;;;;;42.20;26.70;;;;;;;6.19;73.36;101289.11;128418;1279;128697;-64
2023/02/11 15:40:32;;;;;;;;;;;;;;;;;;;;;
2023/02/11 15:44:45;;;;;;;39.00;26.30;;;;;;;6.14;73.87;101300.52;122904;1308;5434017;-62
2023/02/11 15:48:50;;;;;;;43.00;26.10;;;;;;;6.12;74.25;101300.38;125121;1325;114910;-62
2023/02/11 15:52:39;;;;;;;41.60;25.40;;;;;;;6.12;74.39;101305.87;124921;1326;114978;-62
2023/02/11 16:00:48;;;;;;;;;;;;;;;;;;;;;
2023/02/11 16:09:25;;;;;;;42.30;26.30;;;;;;;6.09;74.92;101318.34;126062;1298;636136;-63
2023/02/11 16:13:36;;;;;;;30.70;19.00;;;;;;;6.06;75.08;101315.72;128444;1276;128504;-62
2023/02/11 16:21:48;;;;;;;38.80;24.30;;;;;;;6.07;75.04;101314.81;124342;1270;5436322;-62
2023/02/11 16:25:51;;;;;;;36.90;24.50;;;;;;;6.09;75.28;101318.52;128088;1277;114920;-62
2023/02/11 16:29:55;;;;;;;34.50;22.70;;;;;;;6.09;75.26;101323.48;127310;1286;114923;-63
2023/02/11 16:33:41;;;;;;;33.70;23.90;;;;;;;6.09;75.27;101322.95;127404;1297;114889;-62
2023/02/11 16:41:43;;;;;;;35.90;22.80;;;;;;;6.10;75.49;101329.85;125930;1296;115463;-62
2023/02/11 16:45:45;;;;;;;32.80;21.50;;;;;;;6.12;75.35;101333.02;125167;1321;114912;-63
2023/02/11 16:49:49;;;;;;;29.90;21.10;;;;;;;6.13;75.53;101354.09;124786;1326;114974;-63
2023/02/11 16:53:10;;;;;;;30.90;21.10;;;;;;;6.13;75.79;101357.48;124761;1326;114785;-61
2023/02/11 16:56:20;;;;;;;30.30;21.20;;;;;;;6.13;75.85;101367.41;124832;1326;129699;-61
2023/02/11 16:59:53;;;;;;;33.60;22.30;;;;;;;6.13;75.70;101376.63;124867;1310;114850;-62
2023/02/11 17:03:15;;;;;;;36.20;20.70;;;;;;;6.15;75.97;101370.57;125340;1322;114950;-62
2023/02/11 17:06:40;;;;;;;31.70;22.10;;;;;;;6.18;75.85;101378.68;125721;1301;114943;-62
2023/02/11 17:09:41;;;;;;;27.50;20.00;;;;;;;6.21;75.97;101390.89;125344;1322;115250;-63
2023/02/11 17:13:42;;;;;;;;;;;;;;;;;;;;;
2023/02/11 17:17:31;;;;;;;32.60;22.80;;;;;;;6.25;75.86;101397.21;125988;1300;129662;-63
2023/02/11 17:21:32;;;;;;;35.10;24.30;;;;;;;6.23;75.87;101399.90;126314;1306;116889;-63
2023/02/11 17:25:33;;;;;;;35.50;23.20;;;;;;;6.18;76.08;101413.27;127104;1300;114941;-63
2023/02/11 17:29:35;;;;;;;33.10;23.20;;;;;;;6.20;76.21;101413.78;127123;1289;114958;-63
2023/02/11 17:33:11;;;;;;;;;;;;;;;;;;;;;
2023/02/11 17:37:07;;;;;;;33.80;22.90;;;;;;;6.22;76.32;101416.77;125109;1307;129741;-63
2023/02/11 17:40:57;;;;;;;37.50;24.30;;;;;;;6.24;76.42;101422.77;125249;1304;116479;-68
2023/02/11 17:44:00;;;;;;;36.50;24.00;;;;;;;6.25;76.51;101421.35;125146;1304;114919;-69
2023/02/11 17:47:54;;;;;;;;;;;;;;;;;;;;;
2023/02/11 17:51:59;;;;;;;36.30;22.20;;;;;;;6.17;76.36;101422.34;124627;1330;114907;-70
2023/02/11 17:55:40;;;;;;;34.70;23.00;;;;;;;6.10;76.75;101432.01;124708;1313;129848;-71
2023/02/11 18:03:56;;;;;;;33.80;23.00;;;;;;;6.03;76.74;101429.78;125804;1298;635781;-71
2023/02/11 18:07:18;;;;;;;34.70;22.80;;;;;;;5.97;76.74;101419.18;127324;1281;128203;-73
2023/02/11 18:10:32;;;;;;;36.30;22.40;;;;;;;5.93;77.01;101426.69;127243;1287;115253;-69
2023/02/11 18:14:24;;;;;;;32.40;21.60;;;;;;;5.89;77.07;101423.71;127136;1289;115354;-66
2023/02/11 18:18:07;;;;;;;34.10;21.60;;;;;;;5.88;77.23;101428.69;120694;1300;7165788;-66
2023/02/11 18:21:43;;;;;;;28.20;20.70;;;;;;;5.87;77.27;101432.79;125011;1325;115030;-68
2023/02/11 18:25:51;;;;;;;30.70;21.10;;;;;;;5.86;77.51;101433.86;125169;1325;114998;-67
2023/02/11 18:29:52;;;;;;;35.10;22.50;;;;;;;5.83;77.52;101441.52;124227;1325;128578;-66
2023/02/11 18:33:51;;;;;;;;;;;;;;;;;;;;;
2023/02/11 18:42:13;;;;;;;29.30;21.20;;;;;;;5.79;77.83;101434.84;128584;1282;128184;-68
2023/02/11 18:45:15;;;;;;;27.00;19.40;;;;;;;5.77;77.87;101438.20;127696;1300;115484;-71
2023/02/11 18:48:51;;;;;;;28.30;19.00;;;;;;;5.77;78.14;101435.02;127874;1291;114814;-69
2023/02/11 18:52:18;;;;;;;;;;;;;;;5.76;78.13;101441.23;123757;1287;5431224;-69
2023/02/11 18:56:04;;;;;;;30.20;19.80;;;;;;;5.74;78.12;101456.33;127053;1298;114975;-69
2023/02/11 18:59:47;;;;;;;;;;;;;;;;;;;;;
2023/02/11 19:03:15;;;;;;;30.20;21.00;;;;;;;5.73;78.43;101469.98;125917;1305;129240;-69
2023/02/11 19:07:07;;;;;;;30.90;21.50;;;;;;;5.74;78.58;101468.20;126494;1296;114858;-70
2023/02/11 19:11:10;;;;;;;31.00;21.10;;;;;;;5.74;78.56;101476.53;125527;1305;114917;-70
2023/02/11 19:15:02;;;;;;;;;;;;;;;;;;;;;
2023/02/11 19:19:00;;;;;;;28.40;19.60;;;;;;;5.77;78.64;101483.59;124007;1332;115003;-69
2023/02/11 19:27:06;;;;;;;;;;;;;;;;;;;;;
2023/02/11 19:34:39;;;;;;;26.50;18.30;;;;;;;5.81;78.98;101498.44;128036;1278;114931;-67
2023/02/11 19:38:16;;;;;;;27.60;19.10;;;;;;;5.83;79.03;101493.98;128260;1281;114886;-68
2023/02/11 19:42:18;;;;;;;24.60;17.40;;;;;;;5.85;79.03;101491.49;124017;1297;114877;-68
2023/02/11 19:46:23;;;;;;;26.10;19.10;;;;;;;5.87;79.17;101498.75;126007;1299;114948;-70
2023/02/11 19:50:24;;;;;;;25.20;18.60;;;;;;;5.87;79.17;101504.42;124935;1307;114985;-70
2023/02/11 19:54:22;;;;;;;27.20;18.70;;;;;;;5.88;79.22;101507.58;123674;1319;128467;-70
2023/02/11 20:02:29;;;;;;;28.00;18.70;;;;;;;5.91;79.01;101506.84;126198;1292;637544;-68
2023/02/11 20:06:15;;;;;;;25.70;18.80;;;;;;;5.90;79.47;101510.94;127540;1296;127824;-68
2023/02/11 20:10:17;;;;;;;27.10;19.30;;;;;;;5.91;79.41;101527.23;127516;1285;115497;-68
2023/02/11 20:13:56;;;;;;;;;;;;;;;;;;;;;
2023/02/11 20:17:41;;;;;;;;;;;;;;;;;;;;;
2023/02/11 20:21:34;;;;;;;27.90;17.90;;;;;;;5.93;79.59;101532.90;126601;1290;128928;-67
2023/02/11 20:25:27;;;;;;;;;;;;;;;;;;;;;
2023/02/11 20:29:45;;;;;;;32.10;18.00;;;;;;;5.94;79.69;101546.36;125894;1299;114958;-69
2023/02/11 20:38:15;;;;;;;25.20;19.10;;;;;;;5.96;79.77;101548.84;125873;1297;637243;-67
2023/02/11 20:42:18;;;;;;;25.70;18.30;;;;;;;5.94;79.94;101555.05;128064;1282;128877;-68
2023/02/11 20:46:12;;;;;;;29.10;18.10;;;;;;;5.94;79.95;101555.94;127092;1290;115333;-67
2023/02/11 20:50:07;;;;;;;29.30;18.70;;;;;;;5.95;80.01;101560.54;122667;1295;5436381;-67
2023/02/11 20:53:57;;;;;;;;;;;;;;;;;;;;;
2023/02/11 20:57:51;;;;;;;;;;;;;;;;;;;;;
2023/02/11 21:01:57;;;;;;;25.10;17.60;;;;;;;5.93;80.01;101583.43;124836;1321;115038;-69
2023/02/11 21:05:49;;;;;;;25.80;18.50;;;;;;;5.92;80.18;101582.73;124697;1310;129666;-69
2023/02/11 21:09:38;;;;;;;;;;;;;;;;;;;;;
2023/02/11 21:13:38;;;;;;;;;;;;;;;;;;;;;
2023/02/11 21:17:47;;;;;;;;;;;;;;;;;;;;;
2023/02/11 21:21:53;;;;;;;24.90;18.00;;;;;;;5.90;80.35;101616.43;128139;1276;128849;-66
2023/02/11 21:25:54;;;;;;;30.70;20.30;;;;;;;5.92;80.41;101616.59;127352;1285;115122;-71
2023/02/11 21:29:48;;;;;;;30.40;20.80;;;;;;;5.92;80.38;101620.67;123344;1289;5484158;-72
2023/02/11 21:33:43;;;;;;;30.60;20.80;;;;;;;5.93;80.40;101627.04;126185;1296;114913;-69
2023/02/11 21:37:34;;;;;;;;;;;;;;;;;;;;;
2023/02/11 21:41:28;;;;;;;;;;;;;;;;;;;;;
2023/02/11 21:49:37;;;;;;;34.00;22.00;;;;;;;5.94;80.52;101641.05;125911;1298;636471;-68
2023/02/11 21:53:28;;;;;;;33.30;21.80;;;;;;;5.92;80.73;101647.80;129135;1267;127912;-68
2023/02/11 21:57:29;;;;;;;34.30;23.30;;;;;;;5.92;80.78;101644.25;128706;1273;115475;-68
2023/02/11 22:01:57;;;;;;;34.60;21.80;;;;;;;5.91;80.83;101656.14;127755;1280;114895;-69
2023/02/11 22:05:25;;;;;;;29.50;20.10;;;;;;;5.92;80.76;101665.19;122280;1291;114824;-68
2023/02/11 22:09:27;;;;;;;34.30;22.70;;;;;;;5.94;81.06;101672.09;125350;1316;114904;-67
2023/02/11 22:13:26;;;;;;;;;;;;;;;;;;;;;
2023/02/11 22:17:43;;;;;;;31.20;20.50;;;;;;;5.96;81.01;101673.66;125744;1308;636782;-70
2023/02/11 22:21:46;;;;;;;31.40;21.70;;;;;;;5.95;80.81;101688.20;128098;1282;129013;-70
2023/02/11 22:25:41;;;;;;;;;;;;;;;;;;;;;
2023/02/11 22:29:44;;;;;;;37.60;23.70;;;;;;;5.94;81.09;101700.45;122660;1296;5457673;-69
2023/02/11 22:33:45;;;;;;;32.70;20.60;;;;;;;5.93;81.07;101703.30;126170;1298;115134;-69
2023/02/11 22:37:36;;;;;;;32.00;22.00;;;;;;;5.91;81.18;101699.76;125479;1323;114923;-69
2023/02/11 22:41:30;;;;;;;;;;;;;;;;;;;;;
2023/02/11 22:45:24;;;;;;;;;;;;;;;;;;;;;
2023/02/11 22:50:05;;;;;;;;;;;;;;;;;;;;;
2023/02/11 22:53:59;;;;;;;30.00;20.90;;;;;;;5.93;81.24;101723.34;127681;1283;128469;-68
2023/02/11 22:58:03;;;;;;;28.90;20.60;;;;;;;5.93;81.37;101726.17;126504;1289;114920;-70
2023/02/11 23:06:03;;;;;;;;;;;;;;;;;;;;;
2023/02/11 23:10:24;;;;;;;;;;;;;;;;;;;;;
2023/02/11 23:14:21;;;;;;;29.80;20.00;;;;;;;5.96;81.54;101727.75;128312;1276;128761;-68
2023/02/11 23:18:24;;;;;;;33.30;20.50;;;;;;;5.94;81.43;101721.38;128195;1288;114937;-68
2023/02/11 23:22:17;;;;;;;33.80;20.50;;;;;;;5.93;81.42;101731.66;123917;1280;5460295;-69
2023/02/11 23:26:24;;;;;;;30.50;19.30;;;;;;;5.93;81.71;101731.48;126183;1312;114958;-68
2023/02/11 23:30:26;;;;;;;28.50;19.50;;;;;;;5.93;81.47;101734.67;125509;1313;114979;-68
2023/02/11 23:38:43;;;;;;;;;;;;;;;;;;;;;
2023/02/11 23:42:47;;;;;;;32.60;21.00;;;;;;;5.92;81.75;101749.93;127539;1281;129053;-67
2023/02/11 23:46:43;;;;;;;34.30;20.70;;;;;;;5.92;81.66;101760.23;126642;1288;114786;-66
2023/02/11 23:50:42;;;;;;;;;;;;;;;;;;;;;
2023/02/11 23:54:42;;;;;;;;;;;;;;;;;;;;;
